createdAt,value
2018-09-08T00:04:00.851Z,99.90
2018-09-08T00:14:02.191Z,99.90
2018-09-08T00:24:03.442Z,99.90
2018-09-08T00:34:04.686Z,99.90
2018-09-08T00:44:05.944Z,99.90
2018-09-08T00:54:07.182Z,99.90
2018-09-08T01:04:08.451Z,99.90
2018-09-08T01:14:10.493Z,99.90
2018-09-08T01:24:11.758Z,99.90
2018-09-08T01:34:13.014Z,99.90
2018-09-08T01:44:14.269Z,99.90
2018-09-08T01:54:15.539Z,99.90
2018-09-08T02:04:16.791Z,99.90
2018-09-08T02:14:18.054Z,99.90
2018-09-08T02:24:19.342Z,99.90
2018-09-08T02:34:21.376Z,99.90
2018-09-08T02:44:22.653Z,99.90
2018-09-08T02:54:24.669Z,99.90
2018-09-08T03:04:25.957Z,99.90
2018-09-08T03:14:28.034Z,99.90
2018-09-08T03:24:29.326Z,99.90
2018-09-08T03:34:30.631Z,99.90
2018-09-08T03:44:31.926Z,99.90
2018-09-08T03:54:33.198Z,99.90
2018-09-08T04:04:34.439Z,99.90
2018-09-08T04:14:35.815Z,99.90
2018-09-08T04:24:37.064Z,99.90
2018-09-08T04:34:38.335Z,99.90
2018-09-08T04:44:40.395Z,99.90
2018-09-08T04:54:41.646Z,99.90
2018-09-08T05:04:43.979Z,99.90
2018-09-08T05:14:46.352Z,99.90
2018-09-08T05:24:47.642Z,99.90
2018-09-08T05:34:48.911Z,99.90
2018-09-08T05:44:50.191Z,99.90
2018-09-08T05:54:51.459Z,99.90
2018-09-08T06:04:53.495Z,99.90
2018-09-08T06:14:54.746Z,99.90
2018-09-08T06:24:56.029Z,99.90
2018-09-08T06:34:57.293Z,99.90
2018-09-08T06:44:58.678Z,99.90
2018-09-08T06:55:03.715Z,99.90
2018-09-08T07:05:04.997Z,99.90
2018-09-08T07:15:07.055Z,99.90
2018-09-08T07:25:08.288Z,99.90
2018-09-08T07:35:09.606Z,99.90
2018-09-08T07:45:10.946Z,99.90
2018-09-08T07:55:12.212Z,99.90
2018-09-08T08:05:13.446Z,98.60
2018-09-08T08:15:14.693Z,99.70
2018-09-08T08:25:15.948Z,87.50
2018-09-08T08:35:17.984Z,83.30
2018-09-08T08:45:19.293Z,83.30
2018-09-08T08:55:20.624Z,55.00
2018-09-08T09:05:21.887Z,43.40
2018-09-08T09:15:23.535Z,36.10
2018-09-08T09:25:24.446Z,34.60
2018-09-08T09:35:26.470Z,39.60
2018-09-08T09:45:27.750Z,39.50
2018-09-08T09:55:29.782Z,44.60
2018-09-08T10:05:31.018Z,44.60
2018-09-08T10:15:32.264Z,40.00
2018-09-08T10:25:33.522Z,40.40
2018-09-08T10:35:34.778Z,39.50
2018-09-08T10:45:36.060Z,35.60
2018-09-08T10:55:37.323Z,39.40
2018-09-08T11:05:39.378Z,48.50
2018-09-08T11:15:40.667Z,48.60
2018-09-08T11:25:41.943Z,50.80
2018-09-08T11:35:43.966Z,66.10
2018-09-08T11:45:45.258Z,66.00
2018-09-08T11:55:47.351Z,60.30
2018-09-08T12:05:48.558Z,60.20
2018-09-08T12:15:50.590Z,55.20
2018-09-08T12:25:51.854Z,55.20
2018-09-08T12:35:53.891Z,58.20
2018-09-08T12:45:55.180Z,58.20
2018-09-08T12:55:57.208Z,54.80
2018-09-08T13:05:58.471Z,54.80
2018-09-08T13:15:59.731Z,55.50
2018-09-08T13:26:00.991Z,56.80
2018-09-08T13:36:02.265Z,54.70
2018-09-08T13:46:04.283Z,56.60
2018-09-08T13:56:06.325Z,54.70
2018-09-08T14:06:07.608Z,54.70
2018-09-08T14:16:08.966Z,57.50
2018-09-08T14:26:10.229Z,56.40
2018-09-08T14:36:11.678Z,54.90
2018-09-08T14:46:13.201Z,55.20
2018-09-08T14:56:14.515Z,55.30
2018-09-08T15:06:15.768Z,56.00
2018-09-08T15:16:17.769Z,58.40
2018-09-08T15:26:19.014Z,57.80
2018-09-08T15:36:20.257Z,57.20
2018-09-08T15:46:21.528Z,61.00
2018-09-08T15:56:22.819Z,64.00
2018-09-08T16:06:24.085Z,66.70
2018-09-08T16:16:25.344Z,68.50
2018-09-08T16:26:26.611Z,69.80
2018-09-08T16:36:28.046Z,72.10
2018-09-08T16:46:30.114Z,73.80
2018-09-08T16:56:31.396Z,73.60
2018-09-08T17:06:32.666Z,76.40
2018-09-08T17:16:34.694Z,87.00
2018-09-08T17:26:35.969Z,86.90
2018-09-08T17:36:38.016Z,95.50
2018-09-08T17:46:39.282Z,95.50
2018-09-08T18:06:49.218Z,99.90
2018-09-08T18:16:53.914Z,99.90
2018-09-08T18:26:58.923Z,99.90
2018-09-08T18:37:01.352Z,99.90
2018-09-08T18:47:03.175Z,99.90
2018-09-08T19:07:12.148Z,99.90
2018-09-08T19:17:14.208Z,99.90
2018-09-08T19:27:15.445Z,99.90
2018-09-08T19:37:16.707Z,99.90
2018-09-08T19:47:17.984Z,99.90
2018-09-08T19:57:20.033Z,99.90
2018-09-08T20:07:21.295Z,99.90
2018-09-08T20:17:22.569Z,99.90
2018-09-08T20:27:23.872Z,99.90
2018-09-08T20:37:25.142Z,99.90
2018-09-08T20:47:26.419Z,99.90
2018-09-08T20:57:27.740Z,99.90
2018-09-08T21:07:29.769Z,99.90
2018-09-08T21:17:31.796Z,99.90
2018-09-08T21:27:33.125Z,99.90
2018-09-08T21:37:35.121Z,99.90
2018-09-08T21:47:36.439Z,99.90
2018-09-08T21:57:37.745Z,99.90
2018-09-08T22:07:39.034Z,99.90
2018-09-08T22:17:40.338Z,99.90
2018-09-08T22:27:41.703Z,99.90
2018-09-08T22:37:42.986Z,99.90
2018-09-08T22:47:44.252Z,99.90
2018-09-08T22:57:45.507Z,99.90
2018-09-08T23:07:46.770Z,99.90
2018-09-08T23:17:48.010Z,99.90
2018-09-08T23:27:49.265Z,99.90
2018-09-08T23:37:50.551Z,99.90
2018-09-08T23:47:51.828Z,99.90
2018-09-08T23:57:53.091Z,99.90
